sensor_id;sensor_type;location;lat;lon;timestamp;P1;P2;P0
39955;PMS5003;25631;51.516;-0.470;2023-04-16T00:01:48;9;7;
39955;PMS5003;25631;51.516;-0.470;2023-04-16T00:04:25;10;7;
39955;PMS5003;25631;51.516;-0.470;2023-04-16T00:07:02;9;9;
39955;PMS5003;25631;51.516;-0.470;2023-04-16T00:09:38;10;9;
39955;PMS5003;25631;51.516;-0.470;2023-04-16T00:12:15;10;9;
39955;PMS5003;25631;51.516;-0.470;2023-04-16T00:14:52;7;7;
39955;PMS5003;25631;51.516;-0.470;2023-04-16T00:17:28;11;8;
39955;PMS5003;25631;51.516;-0.470;2023-04-16T00:20:05;8;8;
39955;PMS5003;25631;51.516;-0.470;2023-04-16T00:22:42;8;8;
39955;PMS5003;25631;51.516;-0.470;2023-04-16T00:25:19;9;9;
39955;PMS5003;25631;51.516;-0.470;2023-04-16T00:27:57;9;9;
39955;PMS5003;25631;51.516;-0.470;2023-04-16T00:30:33;8;8;
39955;PMS5003;25631;51.516;-0.470;2023-04-16T00:33:13;10;10;
39955;PMS5003;25631;51.516;-0.470;2023-04-16T00:35:49;11;10;
39955;PMS5003;25631;51.516;-0.470;2023-04-16T00:38:26;10;9;
39955;PMS5003;25631;51.516;-0.470;2023-04-16T00:41:02;10;10;
39955;PMS5003;25631;51.516;-0.470;2023-04-16T00:43:39;12;10;
39955;PMS5003;25631;51.516;-0.470;2023-04-16T00:46:15;8;8;
39955;PMS5003;25631;51.516;-0.470;2023-04-16T00:48:53;8;8;
39955;PMS5003;25631;51.516;-0.470;2023-04-16T00:51:31;9;9;
39955;PMS5003;25631;51.516;-0.470;2023-04-16T00:54:07;9;8;
39955;PMS5003;25631;51.516;-0.470;2023-04-16T00:56:45;9;8;
39955;PMS5003;25631;51.516;-0.470;2023-04-16T00:59:22;9;7;
39955;PMS5003;25631;51.516;-0.470;2023-04-16T01:01:58;10;9;
39955;PMS5003;25631;51.516;-0.470;2023-04-16T01:04:35;12;10;
39955;PMS5003;25631;51.516;-0.470;2023-04-16T01:07:11;8;8;
39955;PMS5003;25631;51.516;-0.470;2023-04-16T01:09:48;9;9;
39955;PMS5003;25631;51.516;-0.470;2023-04-16T01:12:24;9;9;
39955;PMS5003;25631;51.516;-0.470;2023-04-16T01:15:00;9;9;
39955;PMS5003;25631;51.516;-0.470;2023-04-16T01:17:37;9;9;
39955;PMS5003;25631;51.516;-0.470;2023-04-16T01:20:13;9;9;
39955;PMS5003;25631;51.516;-0.470;2023-04-16T01:22:50;8;8;
39955;PMS5003;25631;51.516;-0.470;2023-04-16T01:25:26;8;8;
39955;PMS5003;25631;51.516;-0.470;2023-04-16T01:28:03;9;8;
39955;PMS5003;25631;51.516;-0.470;2023-04-16T01:30:40;10;8;
39955;PMS5003;25631;51.516;-0.470;2023-04-16T01:33:17;8;8;
39955;PMS5003;25631;51.516;-0.470;2023-04-16T01:35:53;10;10;
39955;PMS5003;25631;51.516;-0.470;2023-04-16T01:38:30;12;12;
39955;PMS5003;25631;51.516;-0.470;2023-04-16T01:41:06;8;7;
39955;PMS5003;25631;51.516;-0.470;2023-04-16T01:43:43;8;7;
39955;PMS5003;25631;51.516;-0.470;2023-04-16T01:46:22;7;7;
39955;PMS5003;25631;51.516;-0.470;2023-04-16T01:49:03;9;9;
39955;PMS5003;25631;51.516;-0.470;2023-04-16T01:51:40;8;7;
39955;PMS5003;25631;51.516;-0.470;2023-04-16T01:54:17;8;6;
39955;PMS5003;25631;51.516;-0.470;2023-04-16T01:56:53;7;7;
39955;PMS5003;25631;51.516;-0.470;2023-04-16T01:59:30;7;7;
39955;PMS5003;25631;51.516;-0.470;2023-04-16T02:02:07;8;8;
39955;PMS5003;25631;51.516;-0.470;2023-04-16T02:04:45;9;8;
39955;PMS5003;25631;51.516;-0.470;2023-04-16T02:07:22;7;6;
39955;PMS5003;25631;51.516;-0.470;2023-04-16T02:09:59;7;6;
39955;PMS5003;25631;51.516;-0.470;2023-04-16T02:12:35;7;7;
39955;PMS5003;25631;51.516;-0.470;2023-04-16T02:15:12;8;8;
39955;PMS5003;25631;51.516;-0.470;2023-04-16T02:17:49;9;9;
39955;PMS5003;25631;51.516;-0.470;2023-04-16T02:20:26;8;8;
39955;PMS5003;25631;51.516;-0.470;2023-04-16T02:23:02;9;9;
39955;PMS5003;25631;51.516;-0.470;2023-04-16T02:25:39;9;8;
39955;PMS5003;25631;51.516;-0.470;2023-04-16T02:28:16;11;9;
39955;PMS5003;25631;51.516;-0.470;2023-04-16T02:30:52;9;7;
39955;PMS5003;25631;51.516;-0.470;2023-04-16T02:33:29;9;8;
39955;PMS5003;25631;51.516;-0.470;2023-04-16T02:36:05;8;7;
39955;PMS5003;25631;51.516;-0.470;2023-04-16T02:38:42;9;8;
39955;PMS5003;25631;51.516;-0.470;2023-04-16T02:41:18;8;7;
39955;PMS5003;25631;51.516;-0.470;2023-04-16T02:43:55;8;7;
39955;PMS5003;25631;51.516;-0.470;2023-04-16T02:46:31;8;7;
39955;PMS5003;25631;51.516;-0.470;2023-04-16T02:49:13;8;8;
39955;PMS5003;25631;51.516;-0.470;2023-04-16T02:51:49;9;8;
39955;PMS5003;25631;51.516;-0.470;2023-04-16T02:54:29;8;8;
39955;PMS5003;25631;51.516;-0.470;2023-04-16T02:57:05;8;8;
39955;PMS5003;25631;51.516;-0.470;2023-04-16T02:59:42;10;9;
39955;PMS5003;25631;51.516;-0.470;2023-04-16T03:02:18;10;9;
39955;PMS5003;25631;51.516;-0.470;2023-04-16T03:04:55;11;9;
39955;PMS5003;25631;51.516;-0.470;2023-04-16T03:07:31;6;6;
39955;PMS5003;25631;51.516;-0.470;2023-04-16T03:10:07;7;7;
39955;PMS5003;25631;51.516;-0.470;2023-04-16T03:12:44;6;6;
39955;PMS5003;25631;51.516;-0.470;2023-04-16T03:15:21;8;7;
39955;PMS5003;25631;51.516;-0.470;2023-04-16T03:17:57;10;7;
39955;PMS5003;25631;51.516;-0.470;2023-04-16T03:20:34;11;7;
39955;PMS5003;25631;51.516;-0.470;2023-04-16T03:23:11;9;9;
39955;PMS5003;25631;51.516;-0.470;2023-04-16T03:25:47;9;9;
39955;PMS5003;25631;51.516;-0.470;2023-04-16T03:28:24;5;5;
39955;PMS5003;25631;51.516;-0.470;2023-04-16T03:31:00;7;6;
39955;PMS5003;25631;51.516;-0.470;2023-04-16T03:33:37;7;7;
39955;PMS5003;25631;51.516;-0.470;2023-04-16T03:36:13;8;8;
39955;PMS5003;25631;51.516;-0.470;2023-04-16T03:38:49;8;8;
39955;PMS5003;25631;51.516;-0.470;2023-04-16T03:41:26;11;10;
39955;PMS5003;25631;51.516;-0.470;2023-04-16T03:44:03;10;10;
39955;PMS5003;25631;51.516;-0.470;2023-04-16T03:46:39;9;9;
39955;PMS5003;25631;51.516;-0.470;2023-04-16T03:49:16;13;12;
39955;PMS5003;25631;51.516;-0.470;2023-04-16T03:51:52;11;11;
39955;PMS5003;25631;51.516;-0.470;2023-04-16T03:54:29;15;14;
39955;PMS5003;25631;51.516;-0.470;2023-04-16T03:57:05;16;15;
39955;PMS5003;25631;51.516;-0.470;2023-04-16T03:59:41;16;14;
39955;PMS5003;25631;51.516;-0.470;2023-04-16T04:02:18;13;12;
39955;PMS5003;25631;51.516;-0.470;2023-04-16T04:04:54;14;13;
39955;PMS5003;25631;51.516;-0.470;2023-04-16T04:07:31;14;12;
39955;PMS5003;25631;51.516;-0.470;2023-04-16T04:10:08;14;12;
39955;PMS5003;25631;51.516;-0.470;2023-04-16T04:12:45;13;12;
39955;PMS5003;25631;51.516;-0.470;2023-04-16T04:15:21;19;16;
39955;PMS5003;25631;51.516;-0.470;2023-04-16T04:17:58;16;15;
39955;PMS5003;25631;51.516;-0.470;2023-04-16T04:20:37;15;14;
39955;PMS5003;25631;51.516;-0.470;2023-04-16T04:23:14;12;10;
39955;PMS5003;25631;51.516;-0.470;2023-04-16T04:25:50;11;9;
39955;PMS5003;25631;51.516;-0.470;2023-04-16T04:28:27;15;14;
39955;PMS5003;25631;51.516;-0.470;2023-04-16T04:31:03;14;13;
39955;PMS5003;25631;51.516;-0.470;2023-04-16T04:33:40;11;11;
39955;PMS5003;25631;51.516;-0.470;2023-04-16T04:36:16;12;10;
39955;PMS5003;25631;51.516;-0.470;2023-04-16T04:38:53;12;10;
39955;PMS5003;25631;51.516;-0.470;2023-04-16T04:41:29;12;11;
39955;PMS5003;25631;51.516;-0.470;2023-04-16T04:44:05;12;11;
39955;PMS5003;25631;51.516;-0.470;2023-04-16T04:46:42;13;12;
39955;PMS5003;25631;51.516;-0.470;2023-04-16T04:49:19;12;11;
39955;PMS5003;25631;51.516;-0.470;2023-04-16T04:51:55;12;11;
39955;PMS5003;25631;51.516;-0.470;2023-04-16T04:54:31;11;10;
39955;PMS5003;25631;51.516;-0.470;2023-04-16T04:57:08;12;10;
39955;PMS5003;25631;51.516;-0.470;2023-04-16T04:59:44;12;10;
39955;PMS5003;25631;51.516;-0.470;2023-04-16T05:02:21;10;9;
39955;PMS5003;25631;51.516;-0.470;2023-04-16T05:04:57;9;9;
39955;PMS5003;25631;51.516;-0.470;2023-04-16T05:07:34;10;10;
39955;PMS5003;25631;51.516;-0.470;2023-04-16T05:10:10;13;12;
39955;PMS5003;25631;51.516;-0.470;2023-04-16T05:12:47;14;13;
39955;PMS5003;25631;51.516;-0.470;2023-04-16T05:15:23;13;12;
39955;PMS5003;25631;51.516;-0.470;2023-04-16T05:17:59;12;12;
39955;PMS5003;25631;51.516;-0.470;2023-04-16T05:20:36;12;12;
39955;PMS5003;25631;51.516;-0.470;2023-04-16T05:23:12;15;14;
39955;PMS5003;25631;51.516;-0.470;2023-04-16T05:25:49;15;14;
39955;PMS5003;25631;51.516;-0.470;2023-04-16T05:28:25;15;13;
39955;PMS5003;25631;51.516;-0.470;2023-04-16T05:31:01;12;12;
39955;PMS5003;25631;51.516;-0.470;2023-04-16T05:33:38;13;12;
39955;PMS5003;25631;51.516;-0.470;2023-04-16T05:36:15;13;13;
39955;PMS5003;25631;51.516;-0.470;2023-04-16T05:38:51;13;13;
39955;PMS5003;25631;51.516;-0.470;2023-04-16T05:41:28;13;13;
39955;PMS5003;25631;51.516;-0.470;2023-04-16T05:44:04;13;12;
39955;PMS5003;25631;51.516;-0.470;2023-04-16T05:46:41;12;11;
39955;PMS5003;25631;51.516;-0.470;2023-04-16T05:49:17;12;10;
39955;PMS5003;25631;51.516;-0.470;2023-04-16T05:51:53;12;10;
39955;PMS5003;25631;51.516;-0.470;2023-04-16T05:54:30;13;11;
39955;PMS5003;25631;51.516;-0.470;2023-04-16T05:57:06;15;14;
39955;PMS5003;25631;51.516;-0.470;2023-04-16T05:59:42;14;13;
39955;PMS5003;25631;51.516;-0.470;2023-04-16T06:02:19;15;13;
39955;PMS5003;25631;51.516;-0.470;2023-04-16T06:04:55;12;11;
39955;PMS5003;25631;51.516;-0.470;2023-04-16T06:07:32;14;13;
39955;PMS5003;25631;51.516;-0.470;2023-04-16T06:10:09;13;11;
39955;PMS5003;25631;51.516;-0.470;2023-04-16T06:12:45;13;11;
39955;PMS5003;25631;51.516;-0.470;2023-04-16T06:15:22;12;11;
39955;PMS5003;25631;51.516;-0.470;2023-04-16T06:17:58;17;14;
39955;PMS5003;25631;51.516;-0.470;2023-04-16T06:20:35;16;14;
39955;PMS5003;25631;51.516;-0.470;2023-04-16T06:23:11;15;14;
39955;PMS5003;25631;51.516;-0.470;2023-04-16T06:25:48;15;13;
39955;PMS5003;25631;51.516;-0.470;2023-04-16T06:28:24;15;12;
39955;PMS5003;25631;51.516;-0.470;2023-04-16T06:31:00;16;14;
39955;PMS5003;25631;51.516;-0.470;2023-04-16T06:33:37;16;15;
39955;PMS5003;25631;51.516;-0.470;2023-04-16T06:36:13;16;16;
39955;PMS5003;25631;51.516;-0.470;2023-04-16T06:38:50;16;15;
39955;PMS5003;25631;51.516;-0.470;2023-04-16T06:41:26;16;15;
39955;PMS5003;25631;51.516;-0.470;2023-04-16T06:44:02;13;12;
39955;PMS5003;25631;51.516;-0.470;2023-04-16T06:46:39;15;12;
39955;PMS5003;25631;51.516;-0.470;2023-04-16T06:49:15;16;15;
39955;PMS5003;25631;51.516;-0.470;2023-04-16T06:51:52;17;15;
39955;PMS5003;25631;51.516;-0.470;2023-04-16T06:54:28;17;14;
39955;PMS5003;25631;51.516;-0.470;2023-04-16T06:57:05;16;14;
39955;PMS5003;25631;51.516;-0.470;2023-04-16T06:59:41;16;13;
39955;PMS5003;25631;51.516;-0.470;2023-04-16T07:02:18;14;13;
39955;PMS5003;25631;51.516;-0.470;2023-04-16T07:04:54;14;14;
39955;PMS5003;25631;51.516;-0.470;2023-04-16T07:07:31;14;13;
39955;PMS5003;25631;51.516;-0.470;2023-04-16T07:10:08;15;14;
39955;PMS5003;25631;51.516;-0.470;2023-04-16T07:12:45;15;15;
39955;PMS5003;25631;51.516;-0.470;2023-04-16T07:15:21;16;16;
39955;PMS5003;25631;51.516;-0.470;2023-04-16T07:17:58;14;14;
39955;PMS5003;25631;51.516;-0.470;2023-04-16T07:20:34;18;17;
39955;PMS5003;25631;51.516;-0.470;2023-04-16T07:23:11;16;16;
39955;PMS5003;25631;51.516;-0.470;2023-04-16T07:25:47;17;16;
39955;PMS5003;25631;51.516;-0.470;2023-04-16T07:28:24;17;15;
39955;PMS5003;25631;51.516;-0.470;2023-04-16T07:31:00;23;23;
39955;PMS5003;25631;51.516;-0.470;2023-04-16T07:33:37;20;20;
39955;PMS5003;25631;51.516;-0.470;2023-04-16T07:36:13;16;15;
39955;PMS5003;25631;51.516;-0.470;2023-04-16T07:38:50;17;16;
39955;PMS5003;25631;51.516;-0.470;2023-04-16T07:41:26;19;17;
39955;PMS5003;25631;51.516;-0.470;2023-04-16T07:44:03;19;16;
39955;PMS5003;25631;51.516;-0.470;2023-04-16T07:46:40;19;15;
39955;PMS5003;25631;51.516;-0.470;2023-04-16T07:49:16;19;16;
39955;PMS5003;25631;51.516;-0.470;2023-04-16T07:51:53;15;14;
39955;PMS5003;25631;51.516;-0.470;2023-04-16T07:54:29;16;15;
39955;PMS5003;25631;51.516;-0.470;2023-04-16T07:57:05;17;16;
39955;PMS5003;25631;51.516;-0.470;2023-04-16T07:59:42;16;15;
39955;PMS5003;25631;51.516;-0.470;2023-04-16T08:02:18;16;14;
39955;PMS5003;25631;51.516;-0.470;2023-04-16T08:04:55;16;16;
39955;PMS5003;25631;51.516;-0.470;2023-04-16T08:07:31;15;15;
39955;PMS5003;25631;51.516;-0.470;2023-04-16T08:10:07;18;17;
39955;PMS5003;25631;51.516;-0.470;2023-04-16T08:12:44;16;15;
39955;PMS5003;25631;51.516;-0.470;2023-04-16T08:15:20;14;13;
39955;PMS5003;25631;51.516;-0.470;2023-04-16T08:17:57;17;16;
39955;PMS5003;25631;51.516;-0.470;2023-04-16T08:20:33;18;16;
39955;PMS5003;25631;51.516;-0.470;2023-04-16T08:23:10;17;15;
39955;PMS5003;25631;51.516;-0.470;2023-04-16T08:25:46;17;16;
39955;PMS5003;25631;51.516;-0.470;2023-04-16T08:28:23;17;15;
39955;PMS5003;25631;51.516;-0.470;2023-04-16T08:31:00;16;15;
39955;PMS5003;25631;51.516;-0.470;2023-04-16T08:33:36;16;15;
39955;PMS5003;25631;51.516;-0.470;2023-04-16T08:36:15;16;15;
39955;PMS5003;25631;51.516;-0.470;2023-04-16T08:38:51;15;15;
39955;PMS5003;25631;51.516;-0.470;2023-04-16T08:41:28;15;15;
39955;PMS5003;25631;51.516;-0.470;2023-04-16T08:44:08;19;18;
39955;PMS5003;25631;51.516;-0.470;2023-04-16T08:46:48;18;18;
39955;PMS5003;25631;51.516;-0.470;2023-04-16T08:49:27;16;16;
39955;PMS5003;25631;51.516;-0.470;2023-04-16T08:52:04;20;19;
39955;PMS5003;25631;51.516;-0.470;2023-04-16T08:54:45;21;20;
39955;PMS5003;25631;51.516;-0.470;2023-04-16T08:57:29;19;17;
39955;PMS5003;25631;51.516;-0.470;2023-04-16T09:00:12;19;17;
39955;PMS5003;25631;51.516;-0.470;2023-04-16T09:02:49;18;17;
39955;PMS5003;25631;51.516;-0.470;2023-04-16T09:05:26;21;18;
39955;PMS5003;25631;51.516;-0.470;2023-04-16T09:08:04;19;16;
39955;PMS5003;25631;51.516;-0.470;2023-04-16T09:10:41;16;14;
39955;PMS5003;25631;51.516;-0.470;2023-04-16T09:13:18;20;16;
39955;PMS5003;25631;51.516;-0.470;2023-04-16T09:15:55;20;17;
39955;PMS5003;25631;51.516;-0.470;2023-04-16T09:18:32;20;19;
39955;PMS5003;25631;51.516;-0.470;2023-04-16T09:21:09;19;18;
39955;PMS5003;25631;51.516;-0.470;2023-04-16T09:23:46;20;20;
39955;PMS5003;25631;51.516;-0.470;2023-04-16T09:26:22;18;18;
39955;PMS5003;25631;51.516;-0.470;2023-04-16T09:28:59;18;18;
39955;PMS5003;25631;51.516;-0.470;2023-04-16T09:31:36;20;18;
39955;PMS5003;25631;51.516;-0.470;2023-04-16T09:34:13;19;17;
39955;PMS5003;25631;51.516;-0.470;2023-04-16T09:36:49;23;21;
39955;PMS5003;25631;51.516;-0.470;2023-04-16T09:39:26;21;20;
39955;PMS5003;25631;51.516;-0.470;2023-04-16T09:42:04;24;22;
39955;PMS5003;25631;51.516;-0.470;2023-04-16T09:44:40;21;20;
39955;PMS5003;25631;51.516;-0.470;2023-04-16T09:47:16;21;20;
39955;PMS5003;25631;51.516;-0.470;2023-04-16T09:49:53;20;19;
39955;PMS5003;25631;51.516;-0.470;2023-04-16T09:52:35;21;20;
39955;PMS5003;25631;51.516;-0.470;2023-04-16T09:55:12;22;21;
39955;PMS5003;25631;51.516;-0.470;2023-04-16T09:57:48;20;20;
39955;PMS5003;25631;51.516;-0.470;2023-04-16T10:00:34;22;21;
39955;PMS5003;25631;51.516;-0.470;2023-04-16T10:03:10;23;21;
39955;PMS5003;25631;51.516;-0.470;2023-04-16T10:05:47;25;23;
39955;PMS5003;25631;51.516;-0.470;2023-04-16T10:08:23;24;22;
39955;PMS5003;25631;51.516;-0.470;2023-04-16T10:10:59;22;22;
39955;PMS5003;25631;51.516;-0.470;2023-04-16T10:13:41;30;29;
39955;PMS5003;25631;51.516;-0.470;2023-04-16T10:16:18;27;25;
39955;PMS5003;25631;51.516;-0.470;2023-04-16T10:18:54;23;22;
39955;PMS5003;25631;51.516;-0.470;2023-04-16T10:21:31;21;21;
39955;PMS5003;25631;51.516;-0.470;2023-04-16T10:24:08;20;19;
39955;PMS5003;25631;51.516;-0.470;2023-04-16T10:26:45;15;15;
39955;PMS5003;25631;51.516;-0.470;2023-04-16T10:29:25;16;16;
39955;PMS5003;25631;51.516;-0.470;2023-04-16T10:32:02;18;16;
39955;PMS5003;25631;51.516;-0.470;2023-04-16T10:34:41;22;19;
39955;PMS5003;25631;51.516;-0.470;2023-04-16T10:37:17;21;18;
39955;PMS5003;25631;51.516;-0.470;2023-04-16T10:39:54;23;19;
39955;PMS5003;25631;51.516;-0.470;2023-04-16T10:42:30;21;18;
39955;PMS5003;25631;51.516;-0.470;2023-04-16T10:45:09;19;18;
39955;PMS5003;25631;51.516;-0.470;2023-04-16T10:47:46;19;18;
39955;PMS5003;25631;51.516;-0.470;2023-04-16T10:50:22;17;16;
39955;PMS5003;25631;51.516;-0.470;2023-04-16T10:53:31;16;15;
39955;PMS5003;25631;51.516;-0.470;2023-04-16T10:56:09;13;13;
39955;PMS5003;25631;51.516;-0.470;2023-04-16T10:58:46;14;12;
39955;PMS5003;25631;51.516;-0.470;2023-04-16T11:01:28;14;14;
39955;PMS5003;25631;51.516;-0.470;2023-04-16T11:04:39;15;15;
39955;PMS5003;25631;51.516;-0.470;2023-04-16T11:07:18;17;15;
39955;PMS5003;25631;51.516;-0.470;2023-04-16T11:09:56;18;16;
39955;PMS5003;25631;51.516;-0.470;2023-04-16T11:12:33;17;16;
39955;PMS5003;25631;51.516;-0.470;2023-04-16T11:15:12;13;12;
39955;PMS5003;25631;51.516;-0.470;2023-04-16T11:17:49;13;13;
39955;PMS5003;25631;51.516;-0.470;2023-04-16T11:20:27;17;15;
39955;PMS5003;25631;51.516;-0.470;2023-04-16T11:23:04;20;17;
39955;PMS5003;25631;51.516;-0.470;2023-04-16T11:25:45;19;18;
39955;PMS5003;25631;51.516;-0.470;2023-04-16T11:28:37;21;20;
39955;PMS5003;25631;51.516;-0.470;2023-04-16T11:31:14;22;20;
39955;PMS5003;25631;51.516;-0.470;2023-04-16T11:33:50;20;18;
39955;PMS5003;25631;51.516;-0.470;2023-04-16T11:36:26;18;17;
39955;PMS5003;25631;51.516;-0.470;2023-04-16T11:39:03;18;18;
39955;PMS5003;25631;51.516;-0.470;2023-04-16T11:41:41;13;12;
39955;PMS5003;25631;51.516;-0.470;2023-04-16T11:44:19;13;13;
39955;PMS5003;25631;51.516;-0.470;2023-04-16T11:46:56;22;21;
39955;PMS5003;25631;51.516;-0.470;2023-04-16T11:49:32;20;19;
39955;PMS5003;25631;51.516;-0.470;2023-04-16T11:52:09;17;16;
39955;PMS5003;25631;51.516;-0.470;2023-04-16T11:54:48;18;18;
39955;PMS5003;25631;51.516;-0.470;2023-04-16T11:57:26;18;18;
39955;PMS5003;25631;51.516;-0.470;2023-04-16T12:00:04;17;17;
39955;PMS5003;25631;51.516;-0.470;2023-04-16T12:02:41;15;14;
39955;PMS5003;25631;51.516;-0.470;2023-04-16T12:05:26;15;15;
39955;PMS5003;25631;51.516;-0.470;2023-04-16T12:08:05;14;13;
39955;PMS5003;25631;51.516;-0.470;2023-04-16T12:10:52;15;15;
39955;PMS5003;25631;51.516;-0.470;2023-04-16T12:13:29;16;16;
39955;PMS5003;25631;51.516;-0.470;2023-04-16T12:16:15;17;16;
39955;PMS5003;25631;51.516;-0.470;2023-04-16T12:19:01;15;15;
39955;PMS5003;25631;51.516;-0.470;2023-04-16T12:21:39;17;15;
39955;PMS5003;25631;51.516;-0.470;2023-04-16T12:24:17;14;13;
39955;PMS5003;25631;51.516;-0.470;2023-04-16T12:26:54;17;16;
39955;PMS5003;25631;51.516;-0.470;2023-04-16T12:29:30;20;18;
39955;PMS5003;25631;51.516;-0.470;2023-04-16T12:32:15;19;18;
39955;PMS5003;25631;51.516;-0.470;2023-04-16T12:34:56;23;20;
39955;PMS5003;25631;51.516;-0.470;2023-04-16T12:37:32;22;21;
39955;PMS5003;25631;51.516;-0.470;2023-04-16T12:40:09;24;23;
39955;PMS5003;25631;51.516;-0.470;2023-04-16T12:42:46;13;13;
39955;PMS5003;25631;51.516;-0.470;2023-04-16T12:45:22;13;13;
39955;PMS5003;25631;51.516;-0.470;2023-04-16T12:47:59;12;12;
39955;PMS5003;25631;51.516;-0.470;2023-04-16T12:50:36;12;11;
39955;PMS5003;25631;51.516;-0.470;2023-04-16T12:53:12;13;12;
39955;PMS5003;25631;51.516;-0.470;2023-04-16T12:55:49;14;13;
39955;PMS5003;25631;51.516;-0.470;2023-04-16T12:58:25;13;12;
39955;PMS5003;25631;51.516;-0.470;2023-04-16T13:01:02;13;12;
39955;PMS5003;25631;51.516;-0.470;2023-04-16T13:03:38;14;12;
39955;PMS5003;25631;51.516;-0.470;2023-04-16T13:06:15;15;13;
39955;PMS5003;25631;51.516;-0.470;2023-04-16T13:08:52;14;14;
39955;PMS5003;25631;51.516;-0.470;2023-04-16T13:11:28;13;12;
39955;PMS5003;25631;51.516;-0.470;2023-04-16T13:14:05;14;13;
39955;PMS5003;25631;51.516;-0.470;2023-04-16T13:16:41;17;16;
39955;PMS5003;25631;51.516;-0.470;2023-04-16T13:19:18;16;16;
39955;PMS5003;25631;51.516;-0.470;2023-04-16T13:21:54;16;15;
39955;PMS5003;25631;51.516;-0.470;2023-04-16T13:24:31;13;13;
39955;PMS5003;25631;51.516;-0.470;2023-04-16T13:27:07;13;12;
39955;PMS5003;25631;51.516;-0.470;2023-04-16T13:29:44;12;11;
39955;PMS5003;25631;51.516;-0.470;2023-04-16T13:32:20;14;13;
39955;PMS5003;25631;51.516;-0.470;2023-04-16T13:34:57;16;14;
39955;PMS5003;25631;51.516;-0.470;2023-04-16T13:37:33;18;18;
39955;PMS5003;25631;51.516;-0.470;2023-04-16T13:40:10;16;15;
39955;PMS5003;25631;51.516;-0.470;2023-04-16T13:42:46;19;18;
39955;PMS5003;25631;51.516;-0.470;2023-04-16T13:45:23;21;18;
39955;PMS5003;25631;51.516;-0.470;2023-04-16T13:47:59;21;19;
39955;PMS5003;25631;51.516;-0.470;2023-04-16T13:50:36;20;16;
39955;PMS5003;25631;51.516;-0.470;2023-04-16T13:53:13;18;15;
39955;PMS5003;25631;51.516;-0.470;2023-04-16T13:55:49;13;12;
39955;PMS5003;25631;51.516;-0.470;2023-04-16T13:58:25;13;11;
39955;PMS5003;25631;51.516;-0.470;2023-04-16T14:01:02;12;11;
39955;PMS5003;25631;51.516;-0.470;2023-04-16T14:03:39;15;13;
39955;PMS5003;25631;51.516;-0.470;2023-04-16T14:06:15;16;14;
39955;PMS5003;25631;51.516;-0.470;2023-04-16T14:08:52;18;16;
39955;PMS5003;25631;51.516;-0.470;2023-04-16T14:11:28;14;14;
39955;PMS5003;25631;51.516;-0.470;2023-04-16T14:14:05;16;15;
39955;PMS5003;25631;51.516;-0.470;2023-04-16T14:16:42;13;12;
39955;PMS5003;25631;51.516;-0.470;2023-04-16T14:19:18;13;13;
39955;PMS5003;25631;51.516;-0.470;2023-04-16T14:21:55;15;14;
39955;PMS5003;25631;51.516;-0.470;2023-04-16T14:24:31;15;14;
39955;PMS5003;25631;51.516;-0.470;2023-04-16T14:27:07;15;14;
39955;PMS5003;25631;51.516;-0.470;2023-04-16T14:29:44;13;12;
39955;PMS5003;25631;51.516;-0.470;2023-04-16T14:32:21;12;12;
39955;PMS5003;25631;51.516;-0.470;2023-04-16T14:34:57;13;12;
39955;PMS5003;25631;51.516;-0.470;2023-04-16T14:37:33;13;13;
39955;PMS5003;25631;51.516;-0.470;2023-04-16T14:40:11;13;13;
39955;PMS5003;25631;51.516;-0.470;2023-04-16T14:42:47;12;12;
39955;PMS5003;25631;51.516;-0.470;2023-04-16T14:45:24;13;12;
39955;PMS5003;25631;51.516;-0.470;2023-04-16T14:48:00;13;12;
39955;PMS5003;25631;51.516;-0.470;2023-04-16T14:50:37;15;15;
39955;PMS5003;25631;51.516;-0.470;2023-04-16T14:53:13;17;17;
39955;PMS5003;25631;51.516;-0.470;2023-04-16T14:55:50;17;17;
39955;PMS5003;25631;51.516;-0.470;2023-04-16T14:58:27;13;12;
39955;PMS5003;25631;51.516;-0.470;2023-04-16T15:01:04;15;14;
39955;PMS5003;25631;51.516;-0.470;2023-04-16T15:03:40;14;12;
39955;PMS5003;25631;51.516;-0.470;2023-04-16T15:06:17;15;14;
39955;PMS5003;25631;51.516;-0.470;2023-04-16T15:08:53;16;13;
39955;PMS5003;25631;51.516;-0.470;2023-04-16T15:11:30;13;13;
39955;PMS5003;25631;51.516;-0.470;2023-04-16T15:14:06;14;12;
39955;PMS5003;25631;51.516;-0.470;2023-04-16T15:16:43;13;12;
39955;PMS5003;25631;51.516;-0.470;2023-04-16T15:19:20;16;12;
39955;PMS5003;25631;51.516;-0.470;2023-04-16T15:21:56;14;12;
39955;PMS5003;25631;51.516;-0.470;2023-04-16T15:24:34;15;14;
39955;PMS5003;25631;51.516;-0.470;2023-04-16T15:27:10;16;14;
39955;PMS5003;25631;51.516;-0.470;2023-04-16T15:29:47;15;13;
39955;PMS5003;25631;51.516;-0.470;2023-04-16T15:32:23;11;10;
39955;PMS5003;25631;51.516;-0.470;2023-04-16T15:35:00;12;11;
39955;PMS5003;25631;51.516;-0.470;2023-04-16T15:37:37;12;11;
39955;PMS5003;25631;51.516;-0.470;2023-04-16T15:40:14;12;11;
39955;PMS5003;25631;51.516;-0.470;2023-04-16T15:42:50;11;10;
39955;PMS5003;25631;51.516;-0.470;2023-04-16T15:45:27;13;11;
39955;PMS5003;25631;51.516;-0.470;2023-04-16T15:48:04;12;10;
39955;PMS5003;25631;51.516;-0.470;2023-04-16T15:50:41;13;12;
39955;PMS5003;25631;51.516;-0.470;2023-04-16T15:53:17;17;13;
39955;PMS5003;25631;51.516;-0.470;2023-04-16T15:55:54;14;12;
39955;PMS5003;25631;51.516;-0.470;2023-04-16T15:58:30;13;11;
39955;PMS5003;25631;51.516;-0.470;2023-04-16T16:01:07;12;10;
39955;PMS5003;25631;51.516;-0.470;2023-04-16T16:03:43;13;12;
39955;PMS5003;25631;51.516;-0.470;2023-04-16T16:06:19;10;10;
39955;PMS5003;25631;51.516;-0.470;2023-04-16T16:08:56;12;10;
39955;PMS5003;25631;51.516;-0.470;2023-04-16T16:11:34;11;10;
39955;PMS5003;25631;51.516;-0.470;2023-04-16T16:14:11;12;11;
39955;PMS5003;25631;51.516;-0.470;2023-04-16T16:16:47;11;10;
39955;PMS5003;25631;51.516;-0.470;2023-04-16T16:19:24;11;10;
39955;PMS5003;25631;51.516;-0.470;2023-04-16T16:22:00;10;10;
39955;PMS5003;25631;51.516;-0.470;2023-04-16T16:24:37;10;10;
39955;PMS5003;25631;51.516;-0.470;2023-04-16T16:27:13;11;10;
39955;PMS5003;25631;51.516;-0.470;2023-04-16T16:29:49;13;12;
39955;PMS5003;25631;51.516;-0.470;2023-04-16T16:32:26;13;12;
39955;PMS5003;25631;51.516;-0.470;2023-04-16T16:35:03;12;11;
39955;PMS5003;25631;51.516;-0.470;2023-04-16T16:37:40;12;11;
39955;PMS5003;25631;51.516;-0.470;2023-04-16T16:40:16;12;11;
39955;PMS5003;25631;51.516;-0.470;2023-04-16T16:42:53;12;11;
39955;PMS5003;25631;51.516;-0.470;2023-04-16T16:45:29;11;11;
39955;PMS5003;25631;51.516;-0.470;2023-04-16T16:48:07;13;13;
39955;PMS5003;25631;51.516;-0.470;2023-04-16T16:50:43;13;12;
39955;PMS5003;25631;51.516;-0.470;2023-04-16T16:53:20;13;13;
39955;PMS5003;25631;51.516;-0.470;2023-04-16T16:55:56;14;14;
39955;PMS5003;25631;51.516;-0.470;2023-04-16T16:58:33;14;14;
39955;PMS5003;25631;51.516;-0.470;2023-04-16T17:01:09;14;12;
39955;PMS5003;25631;51.516;-0.470;2023-04-16T17:03:45;14;13;
39955;PMS5003;25631;51.516;-0.470;2023-04-16T17:06:22;14;12;
39955;PMS5003;25631;51.516;-0.470;2023-04-16T17:08:59;14;13;
39955;PMS5003;25631;51.516;-0.470;2023-04-16T17:11:35;13;12;